sensor_id;sensor_type;location;lat;lon;timestamp;temperature;humidity
16578;DHT22;8401;52.528;13.340;2023-09-30T00:02:14;17.40;99.90
16578;DHT22;8401;52.528;13.340;2023-09-30T00:04:40;17.40;99.90
16578;DHT22;8401;52.528;13.340;2023-09-30T00:07:05;17.40;99.90
16578;DHT22;8401;52.528;13.340;2023-09-30T00:09:31;17.40;99.90
16578;DHT22;8401;52.528;13.340;2023-09-30T00:11:57;17.30;99.90
16578;DHT22;8401;52.528;13.340;2023-09-30T00:14:23;17.40;99.90
16578;DHT22;8401;52.528;13.340;2023-09-30T00:16:48;17.30;99.90
16578;DHT22;8401;52.528;13.340;2023-09-30T00:19:14;17.20;99.90
16578;DHT22;8401;52.528;13.340;2023-09-30T00:21:40;17.10;99.90
16578;DHT22;8401;52.528;13.340;2023-09-30T00:24:06;17.00;99.90
16578;DHT22;8401;52.528;13.340;2023-09-30T00:26:31;17.00;99.90
16578;DHT22;8401;52.528;13.340;2023-09-30T00:28:57;16.90;99.90
16578;DHT22;8401;52.528;13.340;2023-09-30T00:31:22;16.90;99.90
16578;DHT22;8401;52.528;13.340;2023-09-30T00:33:48;16.80;99.90
16578;DHT22;8401;52.528;13.340;2023-09-30T00:36:14;16.80;99.90
16578;DHT22;8401;52.528;13.340;2023-09-30T00:38:40;16.80;99.90
16578;DHT22;8401;52.528;13.340;2023-09-30T00:41:06;16.80;99.90
16578;DHT22;8401;52.528;13.340;2023-09-30T00:43:33;16.60;99.90
16578;DHT22;8401;52.528;13.340;2023-09-30T00:46:06;16.60;99.90
16578;DHT22;8401;52.528;13.340;2023-09-30T00:48:36;16.50;99.90
16578;DHT22;8401;52.528;13.340;2023-09-30T00:51:03;16.40;99.90
16578;DHT22;8401;52.528;13.340;2023-09-30T00:53:29;16.50;99.90
16578;DHT22;8401;52.528;13.340;2023-09-30T00:55:55;16.40;99.90
16578;DHT22;8401;52.528;13.340;2023-09-30T00:58:23;16.40;99.90
16578;DHT22;8401;52.528;13.340;2023-09-30T01:00:53;16.40;99.90
16578;DHT22;8401;52.528;13.340;2023-09-30T01:03:19;16.30;99.90
16578;DHT22;8401;52.528;13.340;2023-09-30T01:05:45;16.20;99.90
16578;DHT22;8401;52.528;13.340;2023-09-30T01:08:11;16.20;99.90
16578;DHT22;8401;52.528;13.340;2023-09-30T01:10:37;16.10;99.90
16578;DHT22;8401;52.528;13.340;2023-09-30T01:13:02;16.10;99.90
16578;DHT22;8401;52.528;13.340;2023-09-30T01:15:31;16.10;99.90
16578;DHT22;8401;52.528;13.340;2023-09-30T01:17:57;16.00;99.90
16578;DHT22;8401;52.528;13.340;2023-09-30T01:20:23;15.90;99.90
16578;DHT22;8401;52.528;13.340;2023-09-30T01:22:49;15.80;99.90
16578;DHT22;8401;52.528;13.340;2023-09-30T01:25:15;15.90;99.90
16578;DHT22;8401;52.528;13.340;2023-09-30T01:27:40;15.80;99.90
16578;DHT22;8401;52.528;13.340;2023-09-30T01:30:06;15.70;99.90
16578;DHT22;8401;52.528;13.340;2023-09-30T01:32:36;15.70;99.90
16578;DHT22;8401;52.528;13.340;2023-09-30T01:35:02;15.70;99.90
16578;DHT22;8401;52.528;13.340;2023-09-30T01:37:28;15.60;99.90
16578;DHT22;8401;52.528;13.340;2023-09-30T01:39:54;15.60;99.90
16578;DHT22;8401;52.528;13.340;2023-09-30T01:42:20;15.60;99.90
16578;DHT22;8401;52.528;13.340;2023-09-30T01:44:46;15.50;99.90
16578;DHT22;8401;52.528;13.340;2023-09-30T01:47:12;15.50;99.90
16578;DHT22;8401;52.528;13.340;2023-09-30T01:49:37;15.50;99.90
16578;DHT22;8401;52.528;13.340;2023-09-30T01:52:03;15.40;99.90
16578;DHT22;8401;52.528;13.340;2023-09-30T01:54:29;15.50;99.90
16578;DHT22;8401;52.528;13.340;2023-09-30T01:56:55;15.40;99.90
16578;DHT22;8401;52.528;13.340;2023-09-30T01:59:21;15.30;99.90
16578;DHT22;8401;52.528;13.340;2023-09-30T02:01:47;15.30;99.90
16578;DHT22;8401;52.528;13.340;2023-09-30T02:04:14;15.30;99.90
16578;DHT22;8401;52.528;13.340;2023-09-30T02:06:41;15.30;99.90
16578;DHT22;8401;52.528;13.340;2023-09-30T02:09:07;15.40;99.90
16578;DHT22;8401;52.528;13.340;2023-09-30T02:11:37;15.40;99.90
16578;DHT22;8401;52.528;13.340;2023-09-30T02:14:03;15.40;99.90
16578;DHT22;8401;52.528;13.340;2023-09-30T02:16:29;15.20;99.90
16578;DHT22;8401;52.528;13.340;2023-09-30T02:18:55;15.30;99.90
16578;DHT22;8401;52.528;13.340;2023-09-30T02:21:21;15.30;99.90
16578;DHT22;8401;52.528;13.340;2023-09-30T02:23:47;15.20;99.90
16578;DHT22;8401;52.528;13.340;2023-09-30T02:26:20;15.10;99.90
16578;DHT22;8401;52.528;13.340;2023-09-30T02:28:47;15.20;99.90
16578;DHT22;8401;52.528;13.340;2023-09-30T02:31:12;15.10;99.90
16578;DHT22;8401;52.528;13.340;2023-09-30T02:33:38;15.20;99.90
16578;DHT22;8401;52.528;13.340;2023-09-30T02:36:08;15.10;99.90
16578;DHT22;8401;52.528;13.340;2023-09-30T02:38:34;15.20;99.90
16578;DHT22;8401;52.528;13.340;2023-09-30T02:41:02;15.20;99.90
16578;DHT22;8401;52.528;13.340;2023-09-30T02:43:28;15.10;99.90
16578;DHT22;8401;52.528;13.340;2023-09-30T02:45:54;15.20;99.90
16578;DHT22;8401;52.528;13.340;2023-09-30T02:48:20;15.10;99.90
16578;DHT22;8401;52.528;13.340;2023-09-30T02:50:45;15.00;99.90
16578;DHT22;8401;52.528;13.340;2023-09-30T02:53:12;15.00;99.90
16578;DHT22;8401;52.528;13.340;2023-09-30T02:55:43;15.00;99.90
16578;DHT22;8401;52.528;13.340;2023-09-30T02:58:09;14.90;99.90
16578;DHT22;8401;52.528;13.340;2023-09-30T03:00:37;14.90;99.90
16578;DHT22;8401;52.528;13.340;2023-09-30T03:03:04;14.90;99.90
16578;DHT22;8401;52.528;13.340;2023-09-30T03:05:31;14.90;99.90
16578;DHT22;8401;52.528;13.340;2023-09-30T03:07:59;14.90;99.90
16578;DHT22;8401;52.528;13.340;2023-09-30T03:10:26;14.80;99.90
16578;DHT22;8401;52.528;13.340;2023-09-30T03:12:53;14.80;99.90
16578;DHT22;8401;52.528;13.340;2023-09-30T03:15:19;14.80;99.90
16578;DHT22;8401;52.528;13.340;2023-09-30T03:17:45;14.80;99.90
16578;DHT22;8401;52.528;13.340;2023-09-30T03:20:11;14.70;99.90
16578;DHT22;8401;52.528;13.340;2023-09-30T03:22:44;14.70;99.90
16578;DHT22;8401;52.528;13.340;2023-09-30T03:25:12;14.70;99.90
16578;DHT22;8401;52.528;13.340;2023-09-30T03:27:40;14.70;99.90
16578;DHT22;8401;52.528;13.340;2023-09-30T03:30:07;14.70;99.90
16578;DHT22;8401;52.528;13.340;2023-09-30T03:32:34;14.70;99.90
16578;DHT22;8401;52.528;13.340;2023-09-30T03:35:07;14.70;99.90
16578;DHT22;8401;52.528;13.340;2023-09-30T03:37:33;14.70;99.90
16578;DHT22;8401;52.528;13.340;2023-09-30T03:40:00;14.70;99.90
16578;DHT22;8401;52.528;13.340;2023-09-30T03:42:31;14.70;99.90
16578;DHT22;8401;52.528;13.340;2023-09-30T03:44:57;14.70;99.90
16578;DHT22;8401;52.528;13.340;2023-09-30T03:47:23;14.70;99.90
16578;DHT22;8401;52.528;13.340;2023-09-30T03:49:49;14.70;99.90
16578;DHT22;8401;52.528;13.340;2023-09-30T03:52:14;14.50;99.90
16578;DHT22;8401;52.528;13.340;2023-09-30T03:54:40;14.60;99.90
16578;DHT22;8401;52.528;13.340;2023-09-30T03:57:07;14.50;99.90
16578;DHT22;8401;52.528;13.340;2023-09-30T03:59:32;14.50;99.90
16578;DHT22;8401;52.528;13.340;2023-09-30T04:01:59;14.40;99.90
16578;DHT22;8401;52.528;13.340;2023-09-30T04:04:25;14.30;99.90
16578;DHT22;8401;52.528;13.340;2023-09-30T04:06:51;14.30;99.90
16578;DHT22;8401;52.528;13.340;2023-09-30T04:09:17;14.30;99.90
16578;DHT22;8401;52.528;13.340;2023-09-30T04:11:43;14.30;99.90
16578;DHT22;8401;52.528;13.340;2023-09-30T04:14:09;14.30;99.90
16578;DHT22;8401;52.528;13.340;2023-09-30T04:16:35;14.30;99.90
16578;DHT22;8401;52.528;13.340;2023-09-30T04:19:03;14.30;99.90
16578;DHT22;8401;52.528;13.340;2023-09-30T04:21:28;14.30;99.90
16578;DHT22;8401;52.528;13.340;2023-09-30T04:23:55;14.20;99.90
16578;DHT22;8401;52.528;13.340;2023-09-30T04:26:22;14.20;99.90
16578;DHT22;8401;52.528;13.340;2023-09-30T04:28:47;14.10;99.90
16578;DHT22;8401;52.528;13.340;2023-09-30T04:31:14;14.00;99.90
16578;DHT22;8401;52.528;13.340;2023-09-30T04:33:40;14.00;99.90
16578;DHT22;8401;52.528;13.340;2023-09-30T04:36:06;14.00;99.90
16578;DHT22;8401;52.528;13.340;2023-09-30T04:38:35;14.00;99.90
16578;DHT22;8401;52.528;13.340;2023-09-30T04:41:03;14.00;99.90
16578;DHT22;8401;52.528;13.340;2023-09-30T04:43:29;14.00;99.90
16578;DHT22;8401;52.528;13.340;2023-09-30T04:45:55;14.00;99.90
16578;DHT22;8401;52.528;13.340;2023-09-30T04:48:23;14.10;99.90
16578;DHT22;8401;52.528;13.340;2023-09-30T04:50:48;14.10;99.90
16578;DHT22;8401;52.528;13.340;2023-09-30T04:53:14;14.10;99.90
16578;DHT22;8401;52.528;13.340;2023-09-30T04:55:43;14.10;99.90
16578;DHT22;8401;52.528;13.340;2023-09-30T04:58:08;14.00;99.90
16578;DHT22;8401;52.528;13.340;2023-09-30T05:00:34;14.00;99.90
16578;DHT22;8401;52.528;13.340;2023-09-30T05:03:00;14.00;99.90
16578;DHT22;8401;52.528;13.340;2023-09-30T05:05:26;13.90;99.90
16578;DHT22;8401;52.528;13.340;2023-09-30T05:07:54;13.80;99.90
16578;DHT22;8401;52.528;13.340;2023-09-30T05:10:19;13.80;99.90
16578;DHT22;8401;52.528;13.340;2023-09-30T05:12:45;13.90;99.90
16578;DHT22;8401;52.528;13.340;2023-09-30T05:15:12;13.80;99.90
16578;DHT22;8401;52.528;13.340;2023-09-30T05:17:38;13.70;99.90
16578;DHT22;8401;52.528;13.340;2023-09-30T05:20:05;13.70;99.90
16578;DHT22;8401;52.528;13.340;2023-09-30T05:22:33;13.80;99.90
16578;DHT22;8401;52.528;13.340;2023-09-30T05:24:59;13.70;99.90
16578;DHT22;8401;52.528;13.340;2023-09-30T05:27:24;13.70;99.90
16578;DHT22;8401;52.528;13.340;2023-09-30T05:29:50;13.80;99.90
16578;DHT22;8401;52.528;13.340;2023-09-30T05:32:16;13.80;99.90
16578;DHT22;8401;52.528;13.340;2023-09-30T05:34:41;13.70;99.90
16578;DHT22;8401;52.528;13.340;2023-09-30T05:37:07;13.70;99.90
16578;DHT22;8401;52.528;13.340;2023-09-30T05:39:32;13.70;99.90
16578;DHT22;8401;52.528;13.340;2023-09-30T05:41:58;13.70;99.90
16578;DHT22;8401;52.528;13.340;2023-09-30T05:44:24;13.70;99.90
16578;DHT22;8401;52.528;13.340;2023-09-30T05:46:53;13.70;99.90
16578;DHT22;8401;52.528;13.340;2023-09-30T05:49:18;13.80;99.90
16578;DHT22;8401;52.528;13.340;2023-09-30T05:51:45;13.80;99.90
16578;DHT22;8401;52.528;13.340;2023-09-30T05:54:12;13.80;99.90
16578;DHT22;8401;52.528;13.340;2023-09-30T05:56:38;13.90;99.90
16578;DHT22;8401;52.528;13.340;2023-09-30T05:59:04;13.90;99.90
16578;DHT22;8401;52.528;13.340;2023-09-30T06:01:31;14.00;99.90
16578;DHT22;8401;52.528;13.340;2023-09-30T06:03:58;14.00;99.90
16578;DHT22;8401;52.528;13.340;2023-09-30T06:06:27;14.00;99.90
16578;DHT22;8401;52.528;13.340;2023-09-30T06:08:55;14.00;99.90
16578;DHT22;8401;52.528;13.340;2023-09-30T06:11:23;14.20;99.90
16578;DHT22;8401;52.528;13.340;2023-09-30T06:13:54;14.30;99.90
16578;DHT22;8401;52.528;13.340;2023-09-30T06:16:20;14.30;99.90
16578;DHT22;8401;52.528;13.340;2023-09-30T06:18:46;14.30;99.90
16578;DHT22;8401;52.528;13.340;2023-09-30T06:21:14;14.40;99.90
16578;DHT22;8401;52.528;13.340;2023-09-30T06:23:40;14.40;99.90
16578;DHT22;8401;52.528;13.340;2023-09-30T06:26:06;14.30;99.90
16578;DHT22;8401;52.528;13.340;2023-09-30T06:28:32;14.30;99.90
16578;DHT22;8401;52.528;13.340;2023-09-30T06:30:59;14.30;99.90
16578;DHT22;8401;52.528;13.340;2023-09-30T06:33:25;14.40;99.90
16578;DHT22;8401;52.528;13.340;2023-09-30T06:35:54;14.40;99.90
16578;DHT22;8401;52.528;13.340;2023-09-30T06:38:20;14.40;99.90
16578;DHT22;8401;52.528;13.340;2023-09-30T06:40:46;14.30;99.90
16578;DHT22;8401;52.528;13.340;2023-09-30T06:43:16;14.30;99.90
16578;DHT22;8401;52.528;13.340;2023-09-30T06:45:42;14.40;99.90
16578;DHT22;8401;52.528;13.340;2023-09-30T06:48:09;14.40;99.90
16578;DHT22;8401;52.528;13.340;2023-09-30T06:50:50;14.40;99.90
16578;DHT22;8401;52.528;13.340;2023-09-30T06:53:16;14.50;99.90
16578;DHT22;8401;52.528;13.340;2023-09-30T06:55:43;14.40;99.90
16578;DHT22;8401;52.528;13.340;2023-09-30T06:58:09;14.50;99.90
16578;DHT22;8401;52.528;13.340;2023-09-30T07:00:36;14.50;99.90
16578;DHT22;8401;52.528;13.340;2023-09-30T07:03:02;14.60;99.90
16578;DHT22;8401;52.528;13.340;2023-09-30T07:05:28;14.60;99.90
16578;DHT22;8401;52.528;13.340;2023-09-30T07:07:54;14.60;99.90
16578;DHT22;8401;52.528;13.340;2023-09-30T07:10:20;14.60;99.90
16578;DHT22;8401;52.528;13.340;2023-09-30T07:12:45;14.60;99.90
16578;DHT22;8401;52.528;13.340;2023-09-30T07:15:11;14.70;99.90
16578;DHT22;8401;52.528;13.340;2023-09-30T07:17:37;14.60;99.90
16578;DHT22;8401;52.528;13.340;2023-09-30T07:20:04;14.70;99.90
16578;DHT22;8401;52.528;13.340;2023-09-30T07:22:31;14.80;99.90
16578;DHT22;8401;52.528;13.340;2023-09-30T07:24:57;14.70;99.90
16578;DHT22;8401;52.528;13.340;2023-09-30T07:27:23;14.90;99.90
16578;DHT22;8401;52.528;13.340;2023-09-30T07:29:49;14.80;99.90
16578;DHT22;8401;52.528;13.340;2023-09-30T07:32:16;14.90;99.90
16578;DHT22;8401;52.528;13.340;2023-09-30T07:34:42;14.80;99.90
16578;DHT22;8401;52.528;13.340;2023-09-30T07:37:07;14.90;99.90
16578;DHT22;8401;52.528;13.340;2023-09-30T07:39:34;15.10;99.90
16578;DHT22;8401;52.528;13.340;2023-09-30T07:42:00;15.10;99.90
16578;DHT22;8401;52.528;13.340;2023-09-30T07:44:26;15.20;99.90
16578;DHT22;8401;52.528;13.340;2023-09-30T07:46:52;15.00;99.90
16578;DHT22;8401;52.528;13.340;2023-09-30T07:49:18;15.00;99.90
16578;DHT22;8401;52.528;13.340;2023-09-30T07:51:43;14.90;99.90
16578;DHT22;8401;52.528;13.340;2023-09-30T07:54:09;14.80;99.90
16578;DHT22;8401;52.528;13.340;2023-09-30T07:56:34;14.90;99.90
16578;DHT22;8401;52.528;13.340;2023-09-30T07:59:00;14.90;99.90
16578;DHT22;8401;52.528;13.340;2023-09-30T08:01:27;15.00;99.90
16578;DHT22;8401;52.528;13.340;2023-09-30T08:03:54;15.10;99.90
16578;DHT22;8401;52.528;13.340;2023-09-30T08:06:19;14.90;99.90
16578;DHT22;8401;52.528;13.340;2023-09-30T08:08:45;14.90;99.90
16578;DHT22;8401;52.528;13.340;2023-09-30T08:11:12;14.90;99.90
16578;DHT22;8401;52.528;13.340;2023-09-30T08:13:38;15.20;99.90
16578;DHT22;8401;52.528;13.340;2023-09-30T08:16:04;15.20;99.90
16578;DHT22;8401;52.528;13.340;2023-09-30T08:18:30;15.30;99.90
16578;DHT22;8401;52.528;13.340;2023-09-30T08:20:56;15.50;99.90
16578;DHT22;8401;52.528;13.340;2023-09-30T08:23:21;15.70;99.90
16578;DHT22;8401;52.528;13.340;2023-09-30T08:25:47;15.70;99.90
16578;DHT22;8401;52.528;13.340;2023-09-30T08:28:13;15.70;99.90
16578;DHT22;8401;52.528;13.340;2023-09-30T08:30:38;16.00;99.90
16578;DHT22;8401;52.528;13.340;2023-09-30T08:33:04;16.30;99.90
16578;DHT22;8401;52.528;13.340;2023-09-30T08:35:37;16.50;99.90
16578;DHT22;8401;52.528;13.340;2023-09-30T08:38:03;16.40;99.90
16578;DHT22;8401;52.528;13.340;2023-09-30T08:40:29;16.40;99.90
16578;DHT22;8401;52.528;13.340;2023-09-30T08:42:55;16.20;99.90
16578;DHT22;8401;52.528;13.340;2023-09-30T08:45:21;16.20;99.90
16578;DHT22;8401;52.528;13.340;2023-09-30T08:47:47;16.60;99.90
16578;DHT22;8401;52.528;13.340;2023-09-30T08:50:13;16.90;99.90
16578;DHT22;8401;52.528;13.340;2023-09-30T08:52:41;17.20;99.90
16578;DHT22;8401;52.528;13.340;2023-09-30T08:55:07;17.30;99.90
16578;DHT22;8401;52.528;13.340;2023-09-30T08:57:42;17.30;99.90
16578;DHT22;8401;52.528;13.340;2023-09-30T09:00:10;17.30;99.90
16578;DHT22;8401;52.528;13.340;2023-09-30T09:02:37;17.80;99.90
16578;DHT22;8401;52.528;13.340;2023-09-30T09:05:03;18.60;99.90
16578;DHT22;8401;52.528;13.340;2023-09-30T09:07:29;20.00;99.90
16578;DHT22;8401;52.528;13.340;2023-09-30T09:10:09;20.70;99.90
16578;DHT22;8401;52.528;13.340;2023-09-30T09:12:37;21.30;99.90
16578;DHT22;8401;52.528;13.340;2023-09-30T09:15:05;21.70;99.90
16578;DHT22;8401;52.528;13.340;2023-09-30T09:17:44;21.60;99.90
16578;DHT22;8401;52.528;13.340;2023-09-30T09:20:12;21.80;99.90
16578;DHT22;8401;52.528;13.340;2023-09-30T09:22:44;21.90;99.90
16578;DHT22;8401;52.528;13.340;2023-09-30T09:25:10;22.20;99.90
16578;DHT22;8401;52.528;13.340;2023-09-30T09:27:36;21.70;99.90
16578;DHT22;8401;52.528;13.340;2023-09-30T09:30:25;21.80;99.90
16578;DHT22;8401;52.528;13.340;2023-09-30T09:33:04;21.70;99.90
16578;DHT22;8401;52.528;13.340;2023-09-30T09:35:32;21.70;99.90
16578;DHT22;8401;52.528;13.340;2023-09-30T09:38:05;22.20;99.90
16578;DHT22;8401;52.528;13.340;2023-09-30T09:40:38;22.40;99.90
16578;DHT22;8401;52.528;13.340;2023-09-30T09:43:06;22.40;99.90
16578;DHT22;8401;52.528;13.340;2023-09-30T09:45:36;23.00;99.90
16578;DHT22;8401;52.528;13.340;2023-09-30T09:48:04;23.90;99.90
16578;DHT22;8401;52.528;13.340;2023-09-30T09:50:33;23.70;99.90
16578;DHT22;8401;52.528;13.340;2023-09-30T09:53:01;23.10;99.90
16578;DHT22;8401;52.528;13.340;2023-09-30T09:55:29;22.60;99.90
16578;DHT22;8401;52.528;13.340;2023-09-30T09:57:56;22.00;99.90
16578;DHT22;8401;52.528;13.340;2023-09-30T10:00:25;22.20;99.90
16578;DHT22;8401;52.528;13.340;2023-09-30T10:02:51;22.70;99.90
16578;DHT22;8401;52.528;13.340;2023-09-30T10:05:20;23.00;99.90
16578;DHT22;8401;52.528;13.340;2023-09-30T10:08:00;23.10;99.90
16578;DHT22;8401;52.528;13.340;2023-09-30T10:10:28;23.30;99.90
16578;DHT22;8401;52.528;13.340;2023-09-30T10:12:54;22.60;99.90
16578;DHT22;8401;52.528;13.340;2023-09-30T10:17:58;22.30;99.90
16578;DHT22;8401;52.528;13.340;2023-09-30T10:20:28;22.10;99.90
16578;DHT22;8401;52.528;13.340;2023-09-30T10:26:13;23.00;99.90
16578;DHT22;8401;52.528;13.340;2023-09-30T10:28:46;23.50;99.90
16578;DHT22;8401;52.528;13.340;2023-09-30T10:31:19;24.30;99.90
16578;DHT22;8401;52.528;13.340;2023-09-30T10:36:29;23.00;99.90
16578;DHT22;8401;52.528;13.340;2023-09-30T10:38:55;22.20;99.90
16578;DHT22;8401;52.528;13.340;2023-09-30T10:46:56;23.20;99.90
16578;DHT22;8401;52.528;13.340;2023-09-30T10:51:53;23.60;99.90
16578;DHT22;8401;52.528;13.340;2023-09-30T10:54:26;23.90;99.90
16578;DHT22;8401;52.528;13.340;2023-09-30T10:56:53;24.40;99.90
16578;DHT22;8401;52.528;13.340;2023-09-30T10:59:22;24.60;99.90
16578;DHT22;8401;52.528;13.340;2023-09-30T11:01:49;24.40;99.90
16578;DHT22;8401;52.528;13.340;2023-09-30T11:04:15;24.00;99.90
16578;DHT22;8401;52.528;13.340;2023-09-30T11:06:42;23.80;99.90
16578;DHT22;8401;52.528;13.340;2023-09-30T11:09:08;23.40;99.90
16578;DHT22;8401;52.528;13.340;2023-09-30T11:11:41;23.00;99.90
16578;DHT22;8401;52.528;13.340;2023-09-30T11:16:43;22.70;99.90
16578;DHT22;8401;52.528;13.340;2023-09-30T11:19:09;21.70;99.90
16578;DHT22;8401;52.528;13.340;2023-09-30T11:21:35;22.10;99.90
16578;DHT22;8401;52.528;13.340;2023-09-30T11:24:01;22.80;99.90
16578;DHT22;8401;52.528;13.340;2023-09-30T11:26:31;22.60;99.90
16578;DHT22;8401;52.528;13.340;2023-09-30T11:29:15;22.40;99.90
16578;DHT22;8401;52.528;13.340;2023-09-30T11:31:46;23.20;99.90
16578;DHT22;8401;52.528;13.340;2023-09-30T11:34:15;22.50;99.90
16578;DHT22;8401;52.528;13.340;2023-09-30T11:36:48;22.40;99.90
16578;DHT22;8401;52.528;13.340;2023-09-30T11:39:41;22.10;99.90
16578;DHT22;8401;52.528;13.340;2023-09-30T11:42:15;21.40;99.90
16578;DHT22;8401;52.528;13.340;2023-09-30T11:44:46;21.00;99.90
16578;DHT22;8401;52.528;13.340;2023-09-30T11:47:13;20.90;99.90
16578;DHT22;8401;52.528;13.340;2023-09-30T11:49:42;21.30;99.90
16578;DHT22;8401;52.528;13.340;2023-09-30T11:52:13;21.30;99.90
16578;DHT22;8401;52.528;13.340;2023-09-30T11:54:44;21.00;99.90
16578;DHT22;8401;52.528;13.340;2023-09-30T11:57:14;20.90;99.90
16578;DHT22;8401;52.528;13.340;2023-09-30T11:59:41;21.10;99.90
16578;DHT22;8401;52.528;13.340;2023-09-30T12:02:09;21.40;99.90
16578;DHT22;8401;52.528;13.340;2023-09-30T12:04:35;21.00;99.90
16578;DHT22;8401;52.528;13.340;2023-09-30T12:07:01;21.30;99.90
16578;DHT22;8401;52.528;13.340;2023-09-30T12:09:27;21.10;99.90
16578;DHT22;8401;52.528;13.340;2023-09-30T12:11:54;21.00;99.90
16578;DHT22;8401;52.528;13.340;2023-09-30T12:14:22;21.10;99.90
16578;DHT22;8401;52.528;13.340;2023-09-30T12:16:48;21.10;99.90
16578;DHT22;8401;52.528;13.340;2023-09-30T12:19:14;21.10;99.90
16578;DHT22;8401;52.528;13.340;2023-09-30T12:21:41;21.10;99.90
16578;DHT22;8401;52.528;13.340;2023-09-30T12:24:08;20.90;99.90
16578;DHT22;8401;52.528;13.340;2023-09-30T12:26:35;20.70;99.90
16578;DHT22;8401;52.528;13.340;2023-09-30T12:29:02;20.70;99.90
16578;DHT22;8401;52.528;13.340;2023-09-30T12:31:31;20.70;99.90
16578;DHT22;8401;52.528;13.340;2023-09-30T12:33:56;20.80;99.90
16578;DHT22;8401;52.528;13.340;2023-09-30T12:36:22;20.90;99.90
16578;DHT22;8401;52.528;13.340;2023-09-30T12:38:48;20.80;99.90
16578;DHT22;8401;52.528;13.340;2023-09-30T12:41:13;20.80;99.90
16578;DHT22;8401;52.528;13.340;2023-09-30T12:43:40;20.40;99.90
16578;DHT22;8401;52.528;13.340;2023-09-30T12:46:11;20.50;99.90
16578;DHT22;8401;52.528;13.340;2023-09-30T12:48:39;20.60;99.90
16578;DHT22;8401;52.528;13.340;2023-09-30T12:51:05;20.70;99.90
16578;DHT22;8401;52.528;13.340;2023-09-30T12:53:32;20.60;99.90
16578;DHT22;8401;52.528;13.340;2023-09-30T12:55:58;20.60;99.90
16578;DHT22;8401;52.528;13.340;2023-09-30T12:58:25;20.40;99.90
16578;DHT22;8401;52.528;13.340;2023-09-30T13:00:56;20.10;99.90
16578;DHT22;8401;52.528;13.340;2023-09-30T13:03:23;20.10;99.90
16578;DHT22;8401;52.528;13.340;2023-09-30T13:05:49;20.00;99.90
16578;DHT22;8401;52.528;13.340;2023-09-30T13:08:14;20.30;99.90
16578;DHT22;8401;52.528;13.340;2023-09-30T13:10:40;20.40;99.90
16578;DHT22;8401;52.528;13.340;2023-09-30T13:13:06;20.60;99.90
16578;DHT22;8401;52.528;13.340;2023-09-30T13:15:32;20.60;99.90
16578;DHT22;8401;52.528;13.340;2023-09-30T13:17:58;20.50;99.90
16578;DHT22;8401;52.528;13.340;2023-09-30T13:20:24;20.50;99.90
16578;DHT22;8401;52.528;13.340;2023-09-30T13:22:50;20.30;99.90
16578;DHT22;8401;52.528;13.340;2023-09-30T13:25:16;20.40;99.90
16578;DHT22;8401;52.528;13.340;2023-09-30T13:27:42;20.60;99.90
16578;DHT22;8401;52.528;13.340;2023-09-30T13:30:08;20.40;99.90
16578;DHT22;8401;52.528;13.340;2023-09-30T13:32:35;20.50;99.90
16578;DHT22;8401;52.528;13.340;2023-09-30T13:35:05;20.50;99.90
16578;DHT22;8401;52.528;13.340;2023-09-30T13:37:32;20.40;99.90
16578;DHT22;8401;52.528;13.340;2023-09-30T13:40:02;20.50;99.90
16578;DHT22;8401;52.528;13.340;2023-09-30T13:42:30;20.40;99.90
16578;DHT22;8401;52.528;13.340;2023-09-30T13:44:56;20.50;99.90
16578;DHT22;8401;52.528;13.340;2023-09-30T13:47:24;20.30;99.90
16578;DHT22;8401;52.528;13.340;2023-09-30T13:49:50;20.30;99.90
16578;DHT22;8401;52.528;13.340;2023-09-30T13:52:16;20.30;99.90
16578;DHT22;8401;52.528;13.340;2023-09-30T13:54:41;20.40;99.90
16578;DHT22;8401;52.528;13.340;2023-09-30T13:57:07;20.10;99.90
16578;DHT22;8401;52.528;13.340;2023-09-30T13:59:36;20.10;99.90
16578;DHT22;8401;52.528;13.340;2023-09-30T14:02:02;20.30;99.90
16578;DHT22;8401;52.528;13.340;2023-09-30T14:04:30;20.30;99.90
16578;DHT22;8401;52.528;13.340;2023-09-30T14:07:00;20.40;99.90
16578;DHT22;8401;52.528;13.340;2023-09-30T14:09:27;20.40;99.90
16578;DHT22;8401;52.528;13.340;2023-09-30T14:11:53;20.40;99.90
16578;DHT22;8401;52.528;13.340;2023-09-30T14:14:18;20.40;99.90
16578;DHT22;8401;52.528;13.340;2023-09-30T14:16:44;20.20;99.90
16578;DHT22;8401;52.528;13.340;2023-09-30T14:19:10;20.00;99.90
16578;DHT22;8401;52.528;13.340;2023-09-30T14:21:35;20.10;99.90
16578;DHT22;8401;52.528;13.340;2023-09-30T14:24:01;20.10;99.90
16578;DHT22;8401;52.528;13.340;2023-09-30T14:26:30;20.40;99.90
16578;DHT22;8401;52.528;13.340;2023-09-30T14:28:55;20.50;99.90
16578;DHT22;8401;52.528;13.340;2023-09-30T14:31:21;20.40;99.90
16578;DHT22;8401;52.528;13.340;2023-09-30T14:33:46;20.70;99.90
16578;DHT22;8401;52.528;13.340;2023-09-30T14:36:12;20.80;99.90
16578;DHT22;8401;52.528;13.340;2023-09-30T14:38:38;21.10;99.90
16578;DHT22;8401;52.528;13.340;2023-09-30T14:41:07;21.10;99.90
16578;DHT22;8401;52.528;13.340;2023-09-30T14:43:34;21.10;99.90
16578;DHT22;8401;52.528;13.340;2023-09-30T14:46:03;20.70;99.90
16578;DHT22;8401;52.528;13.340;2023-09-30T14:48:29;20.40;99.90
16578;DHT22;8401;52.528;13.340;2023-09-30T14:50:55;20.10;99.90
16578;DHT22;8401;52.528;13.340;2023-09-30T14:53:22;20.20;99.90
16578;DHT22;8401;52.528;13.340;2023-09-30T14:55:48;20.10;99.90
16578;DHT22;8401;52.528;13.340;2023-09-30T14:58:13;20.10;99.90
16578;DHT22;8401;52.528;13.340;2023-09-30T15:00:39;20.10;99.90
16578;DHT22;8401;52.528;13.340;2023-09-30T15:03:05;20.20;99.90
16578;DHT22;8401;52.528;13.340;2023-09-30T15:05:32;20.10;99.90
16578;DHT22;8401;52.528;13.340;2023-09-30T15:07:59;20.00;99.90
16578;DHT22;8401;52.528;13.340;2023-09-30T15:10:26;20.00;99.90
16578;DHT22;8401;52.528;13.340;2023-09-30T15:12:52;19.90;99.90
16578;DHT22;8401;52.528;13.340;2023-09-30T15:15:18;19.80;99.90
16578;DHT22;8401;52.528;13.340;2023-09-30T15:17:43;19.80;99.90
16578;DHT22;8401;52.528;13.340;2023-09-30T15:20:09;19.90;99.90
16578;DHT22;8401;52.528;13.340;2023-09-30T15:22:35;19.80;99.90
16578;DHT22;8401;52.528;13.340;2023-09-30T15:25:01;19.70;99.90
16578;DHT22;8401;52.528;13.340;2023-09-30T15:27:27;19.60;99.90
16578;DHT22;8401;52.528;13.340;2023-09-30T15:29:53;19.60;99.90
16578;DHT22;8401;52.528;13.340;2023-09-30T15:32:20;19.50;99.90
16578;DHT22;8401;52.528;13.340;2023-09-30T15:34:47;19.40;99.90
16578;DHT22;8401;52.528;13.340;2023-09-30T15:37:12;19.30;99.90
16578;DHT22;8401;52.528;13.340;2023-09-30T15:39:40;19.20;99.90
16578;DHT22;8401;52.528;13.340;2023-09-30T15:42:06;19.30;99.90
16578;DHT22;8401;52.528;13.340;2023-09-30T15:44:35;19.10;99.90
16578;DHT22;8401;52.528;13.340;2023-09-30T15:47:01;19.00;99.90
16578;DHT22;8401;52.528;13.340;2023-09-30T15:49:26;19.00;99.90